North Albemarle, North Carolina
Current Conditions -  °F | °C
As of 7:35 PM on Sunday 21 Dec 2014 (Local Time) from KVUJ Reporting Station
Overcast Overcast  
Wind Chill:   Ceiling: 4000
Heat Index:   Visibility: 10mi
Dew Point:   Wind: 6mph
Humidity: 75%   Direction: 70°ENE
Pressure: 30.25"   Gusts: NA
Location:  35.3503°N, 80.2174°W
Report Text: KVUJ 220035Z AUTO 07005KT 10SM OVC040 08/04 A3025 RMK AO2 T00780037
Loading
Personal Weather Stations






























Interactive Weather Map New forecast layout! Learn more

10-Day Weather Forecast

Advertisements
Track Severe Weather on mobile